createdAt,value
2019-03-04T00:01:36.665Z,88.50
2019-03-04T00:04:04.899Z,88.90
2019-03-04T00:06:33.242Z,88.80
2019-03-04T00:09:01.480Z,88.20
2019-03-04T00:11:29.698Z,88.50
2019-03-04T00:13:57.965Z,88.60
2019-03-04T00:16:26.212Z,88.90
2019-03-04T00:18:54.467Z,88.70
2019-03-04T00:21:22.697Z,88.40
2019-03-04T00:23:50.960Z,90.10
2019-03-04T00:26:19.195Z,89.20
2019-03-04T00:28:47.541Z,89.90
2019-03-04T00:31:15.800Z,90.00
2019-03-04T00:33:44.114Z,90.00
2019-03-04T00:36:12.340Z,89.80
2019-03-04T00:38:40.610Z,89.90
2019-03-04T00:41:08.905Z,90.00
2019-03-04T00:43:37.168Z,89.50
2019-03-04T00:46:05.398Z,89.00
2019-03-04T00:48:33.748Z,89.20
2019-03-04T00:51:01.976Z,89.80
2019-03-04T00:53:30.242Z,89.50
2019-03-04T00:55:58.474Z,89.60
2019-03-04T00:58:26.727Z,89.70
2019-03-04T01:00:54.987Z,90.00
2019-03-04T01:03:23.254Z,90.00
2019-03-04T01:05:51.526Z,90.10
2019-03-04T01:08:19.809Z,90.30
2019-03-04T01:10:48.080Z,90.40
2019-03-04T01:13:16.312Z,90.20
2019-03-04T01:15:44.579Z,90.50
2019-03-04T01:18:12.868Z,90.50
2019-03-04T01:20:41.099Z,90.70
2019-03-04T01:23:09.398Z,90.70
2019-03-04T01:25:37.645Z,90.80
2019-03-04T01:28:05.892Z,90.80
2019-03-04T01:30:34.125Z,91.00
2019-03-04T01:33:02.415Z,91.00
2019-03-04T01:35:30.638Z,90.80
2019-03-04T01:37:58.896Z,90.60
2019-03-04T01:40:27.122Z,90.50
2019-03-04T01:42:55.397Z,90.40
2019-03-04T01:45:23.616Z,90.50
2019-03-04T01:47:51.873Z,90.40
2019-03-04T01:50:20.107Z,90.50
2019-03-04T01:52:48.367Z,90.40
2019-03-04T01:55:17.850Z,90.80
2019-03-04T01:57:46.157Z,90.80
2019-03-04T02:00:20.254Z,90.60
2019-03-04T02:02:48.516Z,90.70
2019-03-04T02:05:17.263Z,91.10
2019-03-04T02:07:45.684Z,90.90
2019-03-04T02:10:15.703Z,90.50
2019-03-04T02:12:44.003Z,90.60
2019-03-04T02:15:16.787Z,90.50
2019-03-04T02:17:45.017Z,90.70
2019-03-04T02:20:15.787Z,90.60
2019-03-04T02:22:44.015Z,90.90
2019-03-04T02:25:17.882Z,91.20
2019-03-04T02:27:48.898Z,91.30
2019-03-04T02:30:20.302Z,91.30
2019-03-04T02:32:48.578Z,91.40
2019-03-04T02:35:16.827Z,91.30
2019-03-04T02:37:45.053Z,91.20
2019-03-04T02:40:13.312Z,91.00
2019-03-04T02:42:41.569Z,91.20
2019-03-04T02:45:13.083Z,91.30
2019-03-04T02:47:41.437Z,91.30
2019-03-04T02:50:09.692Z,91.00
2019-03-04T02:52:37.925Z,90.60
2019-03-04T02:55:07.333Z,90.40
2019-03-04T02:57:35.575Z,90.80
2019-03-04T03:00:12.157Z,90.90
2019-03-04T03:02:40.393Z,90.90
2019-03-04T03:05:09.070Z,91.00
2019-03-04T03:07:37.326Z,90.90
2019-03-04T03:10:08.193Z,90.80
2019-03-04T03:12:35.927Z,91.10
2019-03-04T03:15:06.384Z,91.30
2019-03-04T03:17:34.693Z,91.60
2019-03-04T03:20:03.157Z,91.50
2019-03-04T03:22:31.412Z,91.30
2019-03-04T03:24:59.701Z,91.30
2019-03-04T03:27:27.994Z,91.40
2019-03-04T03:29:56.246Z,91.60
2019-03-04T03:32:24.529Z,91.60
2019-03-04T03:34:52.825Z,91.60
2019-03-04T03:37:40.526Z,91.90
2019-03-04T03:40:28.278Z,91.90
2019-03-04T03:42:56.580Z,91.70
2019-03-04T03:45:24.862Z,92.00
2019-03-04T03:47:53.100Z,91.90
2019-03-04T03:50:21.373Z,91.70
2019-03-04T03:52:49.614Z,91.70
2019-03-04T03:55:17.857Z,91.80
2019-03-04T03:57:46.126Z,91.70
2019-03-04T04:34:33.620Z,91.30
2019-03-04T04:37:01.843Z,91.40
2019-03-04T04:39:30.079Z,91.60
2019-03-04T04:41:58.338Z,91.60
2019-03-04T04:44:26.569Z,91.60
2019-03-04T04:46:54.819Z,91.50
2019-03-04T04:49:23.075Z,91.60
2019-03-04T04:51:51.298Z,91.60
2019-03-04T04:54:19.561Z,91.50
2019-03-04T04:56:47.795Z,91.70
2019-03-04T04:59:16.044Z,91.60
2019-03-04T05:01:44.299Z,91.30
2019-03-04T05:04:12.540Z,91.40
2019-03-04T05:06:40.789Z,91.50
2019-03-04T05:09:09.024Z,91.40
2019-03-04T05:11:37.320Z,91.50
2019-03-04T05:14:05.570Z,91.50
2019-03-04T05:16:33.834Z,91.80
2019-03-04T05:19:21.608Z,91.50
2019-03-04T05:21:49.834Z,91.10
2019-03-04T05:24:18.097Z,91.30
2019-03-04T05:26:46.331Z,91.60
2019-03-04T05:29:14.579Z,91.70
2019-03-04T05:31:42.846Z,91.80
2019-03-04T05:34:11.080Z,91.80
2019-03-04T05:36:39.390Z,91.80
2019-03-04T05:39:07.648Z,91.80
2019-03-04T05:41:35.903Z,91.70
2019-03-04T05:44:04.126Z,91.50
2019-03-04T05:46:32.396Z,91.70
2019-03-04T05:49:00.627Z,91.30
2019-03-04T05:51:28.859Z,91.50
2019-03-04T05:53:57.125Z,91.40
2019-03-04T05:56:25.382Z,91.60
2019-03-04T05:58:53.618Z,91.70
2019-03-04T06:01:27.673Z,91.40
2019-03-04T06:04:01.551Z,91.40
2019-03-04T06:06:49.627Z,91.40
2019-03-04T06:09:17.879Z,91.60
2019-03-04T06:11:46.166Z,92.10
2019-03-04T06:14:14.460Z,91.90
2019-03-04T06:16:47.204Z,91.90
2019-03-04T06:19:12.687Z,91.90
2019-03-04T06:21:40.923Z,91.80
2019-03-04T06:24:09.212Z,91.30
2019-03-04T06:26:37.450Z,91.30
2019-03-04T06:29:05.688Z,91.30
2019-03-04T06:31:33.939Z,91.20
2019-03-04T06:34:02.269Z,91.10
2019-03-04T06:36:30.501Z,90.90
2019-03-04T06:38:58.788Z,90.70
2019-03-04T06:41:27.031Z,90.20
2019-03-04T06:43:55.282Z,90.00
2019-03-04T06:46:23.523Z,90.20
2019-03-04T06:48:52.133Z,90.00
2019-03-04T06:51:29.438Z,90.30
2019-03-04T06:54:00.953Z,90.30
2019-03-04T06:56:35.651Z,90.10
2019-03-04T06:59:23.442Z,90.10
2019-03-04T07:02:15.540Z,90.00
2019-03-04T07:05:03.692Z,90.10
2019-03-04T07:07:51.382Z,90.10
2019-03-04T07:10:19.620Z,90.00
2019-03-04T07:12:47.885Z,89.90
2019-03-04T07:15:16.194Z,89.90
2019-03-04T07:17:44.443Z,88.90
2019-03-04T07:20:18.907Z,88.30
2019-03-04T07:22:48.517Z,87.30
2019-03-04T07:25:16.936Z,87.50
2019-03-04T07:27:45.191Z,87.90
2019-03-04T07:30:17.639Z,87.20
2019-03-04T07:32:45.986Z,88.10
2019-03-04T07:35:14.221Z,86.50
2019-03-04T07:37:42.486Z,86.60
2019-03-04T07:40:18.958Z,85.70
2019-03-04T07:42:47.214Z,86.20
2019-03-04T07:45:15.463Z,86.50
2019-03-04T07:47:43.704Z,86.00
2019-03-04T07:50:11.937Z,85.50
2019-03-04T07:52:40.195Z,85.20
2019-03-04T07:55:08.619Z,85.10
2019-03-04T07:57:36.908Z,84.80
2019-03-04T08:00:08.383Z,83.90
2019-03-04T08:02:36.639Z,80.90
2019-03-04T08:05:08.224Z,79.20
2019-03-04T08:07:42.194Z,73.40
2019-03-04T08:10:33.255Z,65.80
2019-03-04T08:13:07.675Z,60.60
2019-03-04T08:15:37.781Z,57.30
2019-03-04T08:18:06.022Z,54.90
2019-03-04T08:20:34.336Z,54.60
2019-03-04T08:23:02.611Z,53.00
2019-03-04T08:25:30.840Z,52.90
2019-03-04T08:27:59.110Z,53.40
2019-03-04T08:30:27.377Z,52.70
2019-03-04T08:32:55.661Z,52.50
2019-03-04T08:35:23.930Z,53.90
2019-03-04T08:37:52.158Z,58.10
2019-03-04T08:40:20.429Z,59.00
2019-03-04T08:42:48.695Z,61.20
2019-03-04T08:45:18.785Z,64.30
2019-03-04T08:47:47.300Z,66.60
2019-03-04T08:50:16.880Z,68.10
2019-03-04T08:52:45.154Z,68.70
2019-03-04T08:55:15.339Z,69.80
2019-03-04T08:57:43.774Z,70.00
2019-03-04T09:00:17.149Z,69.80
2019-03-04T09:02:45.395Z,70.80
2019-03-04T09:05:13.652Z,72.60
2019-03-04T09:07:41.918Z,74.00
2019-03-04T09:10:15.786Z,74.80
2019-03-04T09:12:44.051Z,75.90
2019-03-04T09:15:13.864Z,77.50
2019-03-04T09:17:42.097Z,78.40
2019-03-04T09:20:11.792Z,78.60
2019-03-04T09:22:40.065Z,78.30
2019-03-04T09:25:14.441Z,79.20
2019-03-04T09:27:42.662Z,78.40
2019-03-04T09:30:13.314Z,77.40
2019-03-04T09:32:41.564Z,77.70
2019-03-04T09:35:13.170Z,77.30
2019-03-04T09:37:41.416Z,78.40
2019-03-04T09:40:15.624Z,76.80
2019-03-04T09:42:44.674Z,76.00
2019-03-04T09:45:14.674Z,74.20
2019-03-04T09:47:42.945Z,74.30
2019-03-04T09:50:19.012Z,71.00
2019-03-04T09:52:47.278Z,67.60
2019-03-04T09:55:16.779Z,67.60
2019-03-04T09:57:45.085Z,66.10
2019-03-04T10:00:37.060Z,63.10
2019-03-04T10:03:32.912Z,64.20
2019-03-04T10:06:12.985Z,64.00
2019-03-04T10:08:53.238Z,64.10
2019-03-04T10:11:44.168Z,62.30
2019-03-04T10:14:24.334Z,62.20
2019-03-04T10:16:55.917Z,62.00
2019-03-04T10:19:42.710Z,61.30
2019-03-04T10:22:17.099Z,61.20
2019-03-04T10:25:00.243Z,61.40
2019-03-04T10:27:31.935Z,59.50
2019-03-04T10:30:27.807Z,59.40
2019-03-04T10:33:20.457Z,59.00
2019-03-04T10:36:09.822Z,58.40
2019-03-04T10:38:47.124Z,58.40
2019-03-04T10:41:18.722Z,57.90
2019-03-04T10:43:56.102Z,57.70
2019-03-04T10:46:27.606Z,56.50
2019-03-04T10:48:55.879Z,57.40
2019-03-04T10:51:24.116Z,57.80
2019-03-04T10:53:52.394Z,57.20
2019-03-04T10:56:20.722Z,56.70
2019-03-04T10:58:48.996Z,57.10
2019-03-04T11:01:17.272Z,56.80
2019-03-04T11:03:45.593Z,57.40
2019-03-04T11:06:13.861Z,56.50
2019-03-04T11:08:42.100Z,56.40
2019-03-04T11:11:10.376Z,56.80
2019-03-04T11:13:38.645Z,56.50
2019-03-04T11:16:06.908Z,56.30
2019-03-04T11:18:35.186Z,56.00
2019-03-04T11:21:03.422Z,56.10
2019-03-04T11:23:31.713Z,55.40
2019-03-04T11:26:00.000Z,55.50
2019-03-04T11:28:28.313Z,55.40
2019-03-04T11:30:56.549Z,55.20
2019-03-04T11:33:24.822Z,54.70
2019-03-04T11:35:53.063Z,55.00
2019-03-04T11:38:38.432Z,53.60
2019-03-04T11:41:08.516Z,54.70
2019-03-04T11:43:36.780Z,54.40
2019-03-04T11:46:05.059Z,54.60
2019-03-04T11:48:33.395Z,54.00
2019-03-04T11:51:01.662Z,54.80
2019-03-04T11:53:29.967Z,54.20
2019-03-04T11:55:58.236Z,55.10
2019-03-04T11:58:26.494Z,55.40
2019-03-04T12:00:59.370Z,55.60
2019-03-04T12:03:27.779Z,55.80
2019-03-04T12:05:56.022Z,54.80
2019-03-04T12:08:24.352Z,54.90
2019-03-04T12:10:52.599Z,55.10
2019-03-04T12:13:20.871Z,55.50
2019-03-04T12:15:49.112Z,54.50
2019-03-04T12:18:17.372Z,55.10
2019-03-04T12:20:45.968Z,54.00
2019-03-04T12:23:14.241Z,53.70
2019-03-04T12:25:42.512Z,53.40
2019-03-04T12:28:10.782Z,52.80
2019-03-04T12:30:39.068Z,52.50
2019-03-04T12:33:07.309Z,52.20
2019-03-04T12:35:35.551Z,52.50
2019-03-04T12:38:03.978Z,53.10
2019-03-04T12:40:32.213Z,52.30
2019-03-04T12:43:00.465Z,51.80
2019-03-04T12:45:34.378Z,51.10
2019-03-04T12:47:58.716Z,51.30
2019-03-04T12:50:29.287Z,50.70
2019-03-04T12:52:58.388Z,50.50
2019-03-04T12:55:26.721Z,49.60
2019-03-04T12:57:54.994Z,49.00
2019-03-04T13:00:31.224Z,48.70
2019-03-04T13:02:59.720Z,48.30
2019-03-04T13:05:27.960Z,47.80
2019-03-04T13:07:56.228Z,47.90
2019-03-04T13:10:24.482Z,47.30
2019-03-04T13:12:52.746Z,46.10
2019-03-04T13:15:31.888Z,44.60
2019-03-04T13:18:00.211Z,45.40
2019-03-04T13:20:29.781Z,45.20
2019-03-04T13:22:58.039Z,45.40
2019-03-04T13:25:26.364Z,45.60
2019-03-04T13:27:54.615Z,44.00
2019-03-04T13:30:34.025Z,42.70
2019-03-04T13:33:02.305Z,40.50
2019-03-04T13:35:38.170Z,38.90
2019-03-04T13:38:06.422Z,36.60
2019-03-04T13:40:34.660Z,36.40
2019-03-04T13:43:02.935Z,36.60
2019-03-04T13:45:31.160Z,34.40
2019-03-04T13:47:59.444Z,33.60
2019-03-04T13:50:35.135Z,34.30
2019-03-04T13:53:03.386Z,33.70
2019-03-04T13:55:31.647Z,32.20
2019-03-04T13:57:59.913Z,34.30
2019-03-04T14:00:31.503Z,34.60
2019-03-04T14:02:59.811Z,33.40
2019-03-04T14:05:28.071Z,35.10
2019-03-04T14:07:56.363Z,35.60
2019-03-04T14:10:30.604Z,35.90
2019-03-04T14:12:58.853Z,35.30
2019-03-04T14:15:32.947Z,34.50
2019-03-04T14:18:01.201Z,34.10
2019-03-04T14:20:29.449Z,34.70
2019-03-04T14:22:58.187Z,36.70
2019-03-04T14:25:26.500Z,37.40
2019-03-04T14:27:54.774Z,38.00
2019-03-04T14:30:23.859Z,38.90
2019-03-04T14:32:52.115Z,39.70
2019-03-04T14:35:20.354Z,39.80
2019-03-04T14:37:48.636Z,41.70
2019-03-04T14:40:20.988Z,39.40
2019-03-04T14:42:49.231Z,38.30
2019-03-04T14:45:20.814Z,38.90
2019-03-04T14:47:49.091Z,39.60
2019-03-04T14:50:18.273Z,40.40
2019-03-04T14:52:46.601Z,40.30
2019-03-04T14:55:22.735Z,40.30
2019-03-04T14:57:50.993Z,40.60
2019-03-04T15:00:23.476Z,41.40
2019-03-04T15:02:51.740Z,42.50
2019-03-04T15:05:19.972Z,42.50
2019-03-04T15:07:48.249Z,43.00
2019-03-04T15:10:16.520Z,43.70
2019-03-04T15:12:44.764Z,43.20
2019-03-04T15:15:18.531Z,43.80
2019-03-04T15:17:46.784Z,44.50
2019-03-04T15:20:28.507Z,45.40
2019-03-04T15:22:56.741Z,46.20
2019-03-04T15:25:33.155Z,47.00
2019-03-04T15:28:15.964Z,47.10
2019-03-04T15:30:58.603Z,47.10
2019-03-04T15:33:26.872Z,47.40
2019-03-04T15:35:55.195Z,47.90
2019-03-04T15:38:23.460Z,47.60
2019-03-04T15:40:51.745Z,46.50
2019-03-04T15:43:20.027Z,47.00
2019-03-04T15:45:49.925Z,47.10
2019-03-04T15:48:20.322Z,46.50
2019-03-04T15:50:48.793Z,46.10
2019-03-04T15:53:17.107Z,46.40
2019-03-04T15:55:45.404Z,44.50
2019-03-04T15:58:13.638Z,43.70
2019-03-04T16:00:41.911Z,42.90
2019-03-04T16:03:10.155Z,43.40
2019-03-04T16:05:38.423Z,43.80
2019-03-04T16:08:07.945Z,44.00
2019-03-04T16:10:39.978Z,44.10
2019-03-04T16:13:08.718Z,45.20
2019-03-04T16:15:39.863Z,46.90
2019-03-04T16:18:27.575Z,48.40
2019-03-04T16:20:55.819Z,53.40
2019-03-04T16:23:24.139Z,71.70
2019-03-04T16:25:52.409Z,86.60
2019-03-04T16:28:23.395Z,91.20
2019-03-04T16:30:51.689Z,90.80
2019-03-04T16:33:19.921Z,92.40
2019-03-04T16:35:48.277Z,92.70
2019-03-04T16:38:16.500Z,92.60
2019-03-04T16:40:44.759Z,93.40
2019-03-04T16:43:13.090Z,93.50
2019-03-04T16:45:42.194Z,93.60
2019-03-04T16:48:10.495Z,93.50
2019-03-04T16:50:40.792Z,93.60
2019-03-04T16:53:12.330Z,94.70
2019-03-04T16:55:40.596Z,92.90
2019-03-04T16:58:08.878Z,93.90
2019-03-04T17:00:37.148Z,93.50
2019-03-04T17:03:05.391Z,93.50
2019-03-04T17:05:33.800Z,93.40
2019-03-04T17:08:02.373Z,93.90
2019-03-04T17:10:30.672Z,94.60
2019-03-04T17:12:58.929Z,94.60
2019-03-04T17:15:27.194Z,94.00
2019-03-04T17:17:55.424Z,93.60
2019-03-04T17:20:23.748Z,92.30
2019-03-04T17:22:52.002Z,92.50
2019-03-04T17:25:24.601Z,92.90
2019-03-04T17:27:52.834Z,93.00
2019-03-04T17:30:23.011Z,93.30
2019-03-04T17:32:51.288Z,93.70
2019-03-04T17:35:21.545Z,93.60
2019-03-04T17:37:49.778Z,94.50
2019-03-04T17:40:39.082Z,93.90
2019-03-04T17:43:07.306Z,94.90
2019-03-04T17:45:35.653Z,93.60
2019-03-04T17:48:23.306Z,93.50
2019-03-04T17:50:51.587Z,92.40
2019-03-04T17:53:19.840Z,93.10
2019-03-04T17:55:48.109Z,92.80
2019-03-04T17:58:16.360Z,93.40
2019-03-04T18:00:46.263Z,92.90
2019-03-04T18:03:14.522Z,93.70
2019-03-04T18:05:42.807Z,92.30
2019-03-04T18:08:11.039Z,91.70
2019-03-04T18:10:39.332Z,92.50
2019-03-04T18:13:11.631Z,93.60
2019-03-04T18:15:41.231Z,93.20
2019-03-04T18:18:09.468Z,92.40
2019-03-04T18:20:37.711Z,92.20
2019-03-04T18:23:05.987Z,93.10
2019-03-04T18:25:40.332Z,92.30
2019-03-04T18:28:14.802Z,92.60
2019-03-04T18:30:48.994Z,92.50
2019-03-04T18:33:37.163Z,92.90
2019-03-04T18:36:14.504Z,93.20
2019-03-04T18:39:04.774Z,92.90
2019-03-04T18:42:05.247Z,92.20
2019-03-04T18:44:59.458Z,92.50
2019-03-04T18:47:39.573Z,91.90
2019-03-04T18:50:07.803Z,91.80
2019-03-04T18:52:55.503Z,92.00
2019-03-04T18:55:23.773Z,91.60
2019-03-04T18:57:52.062Z,91.40
2019-03-04T19:00:24.994Z,91.90
2019-03-04T19:02:53.235Z,91.50
2019-03-04T19:05:22.355Z,91.30
2019-03-04T19:07:50.710Z,91.70
2019-03-04T19:10:18.949Z,92.00
2019-03-04T19:12:47.221Z,92.50
2019-03-04T19:15:15.515Z,93.40
2019-03-04T19:17:43.753Z,93.30
2019-03-04T19:20:17.181Z,94.10
2019-03-04T19:22:45.444Z,95.10
2019-03-04T19:25:14.152Z,94.90
2019-03-04T19:27:42.427Z,95.00
2019-03-04T19:30:14.598Z,94.60
2019-03-04T19:32:42.880Z,94.10
2019-03-04T19:35:15.166Z,93.60
2019-03-04T19:37:43.553Z,94.80
2019-03-04T19:40:13.212Z,95.40
2019-03-04T19:42:41.546Z,94.20
2019-03-04T19:45:16.147Z,94.20
2019-03-04T19:47:44.502Z,95.10
2019-03-04T19:50:12.725Z,95.20
2019-03-04T19:52:40.992Z,94.40
2019-03-04T19:55:13.519Z,94.80
2019-03-04T19:57:41.819Z,94.50
2019-03-04T20:00:24.595Z,95.00
2019-03-04T20:02:52.353Z,95.50
2019-03-04T20:05:21.404Z,94.90
2019-03-04T20:07:49.645Z,94.80
2019-03-04T20:10:18.731Z,95.10
2019-03-04T20:12:47.563Z,96.00
2019-03-04T20:15:24.885Z,95.60
2019-03-04T20:17:53.321Z,95.70
2019-03-04T20:20:21.549Z,96.10
2019-03-04T20:22:50.181Z,95.30
2019-03-04T20:25:18.995Z,94.70
2019-03-04T20:27:47.332Z,94.80
2019-03-04T20:30:17.236Z,94.20
2019-03-04T20:32:46.109Z,95.60
2019-03-04T20:35:15.112Z,95.10
2019-03-04T20:38:10.551Z,95.10
2019-03-04T20:40:38.808Z,95.00
2019-03-04T20:43:07.055Z,95.00
2019-03-04T20:45:35.336Z,95.40
2019-03-04T20:48:04.462Z,95.30
2019-03-04T20:50:32.707Z,94.70
2019-03-04T20:53:00.987Z,95.10
2019-03-04T20:55:29.292Z,94.60
2019-03-04T20:57:57.532Z,95.20
2019-03-04T21:00:32.597Z,95.40
2019-03-04T21:03:01.000Z,95.40
2019-03-04T21:05:29.329Z,94.10
2019-03-04T21:07:57.839Z,94.70
2019-03-04T21:10:26.192Z,94.20
2019-03-04T21:12:56.072Z,94.60
2019-03-04T21:15:25.590Z,94.10
2019-03-04T21:17:53.832Z,93.60
2019-03-04T21:20:22.061Z,93.80
2019-03-04T21:22:50.331Z,94.00
2019-03-04T21:25:38.664Z,94.20
2019-03-04T21:28:28.316Z,94.30
2019-03-04T21:30:59.813Z,94.00
2019-03-04T21:33:55.567Z,93.70
2019-03-04T21:36:27.083Z,93.50
2019-03-04T21:38:57.604Z,93.10
2019-03-04T21:41:46.906Z,93.10
2019-03-04T21:44:45.267Z,92.30
2019-03-04T21:47:28.855Z,93.30
2019-03-04T21:49:57.264Z,93.20
2019-03-04T21:52:34.503Z,93.20
2019-03-04T21:55:05.523Z,92.80
2019-03-04T21:57:53.344Z,92.40
2019-03-04T22:00:25.787Z,92.20
2019-03-04T22:02:57.412Z,92.10
2019-03-04T22:05:25.735Z,91.90
2019-03-04T22:07:54.005Z,91.30
2019-03-04T22:10:22.232Z,91.60
2019-03-04T22:12:50.494Z,92.60
2019-03-04T22:15:18.740Z,92.40
2019-03-04T22:17:46.998Z,92.10
2019-03-04T22:20:15.806Z,92.20
2019-03-04T22:22:44.118Z,92.50
2019-03-04T22:25:13.609Z,92.20
2019-03-04T22:27:41.885Z,92.50
2019-03-04T22:30:15.746Z,92.70
2019-03-04T22:32:43.988Z,92.90
2019-03-04T22:35:17.001Z,93.30
2019-03-04T22:37:44.543Z,92.90
2019-03-04T22:40:18.207Z,93.80
2019-03-04T22:43:05.935Z,93.80
2019-03-04T22:45:34.321Z,93.00
2019-03-04T22:48:02.631Z,93.70
2019-03-04T22:50:30.897Z,94.00
2019-03-04T22:52:59.142Z,93.40
2019-03-04T22:55:33.390Z,92.60
2019-03-04T22:58:01.690Z,92.30
2019-03-04T23:00:49.875Z,91.80
2019-03-04T23:03:19.116Z,92.30
2019-03-04T23:05:53.322Z,92.20
2019-03-04T23:08:21.550Z,92.20
2019-03-04T23:10:51.016Z,92.30
2019-03-04T23:13:40.674Z,92.30
2019-03-04T23:16:09.647Z,92.70
2019-03-04T23:18:37.874Z,92.40
2019-03-04T23:21:06.572Z,92.20
2019-03-04T23:23:34.964Z,92.00
2019-03-04T23:26:03.196Z,91.80
2019-03-04T23:28:31.476Z,91.40
2019-03-04T23:31:00.120Z,92.10
2019-03-04T23:33:28.546Z,91.50
2019-03-04T23:35:56.892Z,91.60
2019-03-04T23:38:25.162Z,91.40
2019-03-04T23:40:53.390Z,92.10
2019-03-04T23:43:22.013Z,91.60
2019-03-04T23:45:50.273Z,91.30
2019-03-04T23:48:18.508Z,91.90
2019-03-04T23:50:46.769Z,91.00
2019-03-04T23:53:15.008Z,91.10
2019-03-04T23:56:02.693Z,91.30
2019-03-04T23:58:30.953Z,90.80
